sensor_id;sensor_type;location;lat;lon;timestamp;P1;durP1;ratioP1;P2;durP2;ratioP2
18905;SDS011;9585;51.018;4.282;2023-07-22T00:01:51;6.40;;;5.80;;
18905;SDS011;9585;51.018;4.282;2023-07-22T00:04:19;6.72;;;5.90;;
18905;SDS011;9585;51.018;4.282;2023-07-22T00:06:47;7.15;;;6.28;;
18905;SDS011;9585;51.018;4.282;2023-07-22T00:09:15;6.90;;;6.20;;
18905;SDS011;9585;51.018;4.282;2023-07-22T00:11:42;7.80;;;5.90;;
18905;SDS011;9585;51.018;4.282;2023-07-22T00:14:10;7.50;;;6.55;;
18905;SDS011;9585;51.018;4.282;2023-07-22T00:16:38;7.97;;;6.60;;
18905;SDS011;9585;51.018;4.282;2023-07-22T00:19:07;6.85;;;5.85;;
18905;SDS011;9585;51.018;4.282;2023-07-22T00:21:35;7.20;;;6.32;;
18905;SDS011;9585;51.018;4.282;2023-07-22T00:24:02;7.30;;;5.75;;
18905;SDS011;9585;51.018;4.282;2023-07-22T00:26:31;6.45;;;5.70;;
18905;SDS011;9585;51.018;4.282;2023-07-22T00:28:59;6.53;;;5.90;;
18905;SDS011;9585;51.018;4.282;2023-07-22T00:31:27;8.20;;;6.30;;
18905;SDS011;9585;51.018;4.282;2023-07-22T00:33:55;8.20;;;7.18;;
18905;SDS011;9585;51.018;4.282;2023-07-22T00:36:25;7.15;;;5.82;;
18905;SDS011;9585;51.018;4.282;2023-07-22T00:38:53;6.68;;;5.97;;
18905;SDS011;9585;51.018;4.282;2023-07-22T00:41:21;8.88;;;6.90;;
18905;SDS011;9585;51.018;4.282;2023-07-22T00:43:49;10.20;;;7.70;;
18905;SDS011;9585;51.018;4.282;2023-07-22T00:46:17;9.55;;;7.65;;
18905;SDS011;9585;51.018;4.282;2023-07-22T00:48:45;8.85;;;7.22;;
18905;SDS011;9585;51.018;4.282;2023-07-22T00:51:14;9.70;;;7.63;;
18905;SDS011;9585;51.018;4.282;2023-07-22T00:53:43;10.70;;;8.00;;
18905;SDS011;9585;51.018;4.282;2023-07-22T00:56:11;8.30;;;7.03;;
18905;SDS011;9585;51.018;4.282;2023-07-22T00:58:39;11.48;;;7.88;;
18905;SDS011;9585;51.018;4.282;2023-07-22T01:01:07;8.13;;;6.72;;
18905;SDS011;9585;51.018;4.282;2023-07-22T01:03:35;9.52;;;7.55;;
18905;SDS011;9585;51.018;4.282;2023-07-22T01:06:02;8.02;;;6.80;;
18905;SDS011;9585;51.018;4.282;2023-07-22T01:08:30;12.98;;;7.78;;
18905;SDS011;9585;51.018;4.282;2023-07-22T01:11:00;9.10;;;7.28;;
18905;SDS011;9585;51.018;4.282;2023-07-22T01:13:27;9.45;;;7.30;;
18905;SDS011;9585;51.018;4.282;2023-07-22T01:15:55;8.52;;;6.85;;
18905;SDS011;9585;51.018;4.282;2023-07-22T01:18:23;10.63;;;7.25;;
18905;SDS011;9585;51.018;4.282;2023-07-22T01:20:51;8.27;;;6.97;;
18905;SDS011;9585;51.018;4.282;2023-07-22T01:23:20;8.65;;;6.93;;
18905;SDS011;9585;51.018;4.282;2023-07-22T01:25:48;8.52;;;7.07;;
18905;SDS011;9585;51.018;4.282;2023-07-22T01:28:17;10.10;;;7.75;;
18905;SDS011;9585;51.018;4.282;2023-07-22T01:30:44;9.43;;;7.25;;
18905;SDS011;9585;51.018;4.282;2023-07-22T01:33:12;11.98;;;7.88;;
18905;SDS011;9585;51.018;4.282;2023-07-22T01:35:40;11.70;;;8.38;;
18905;SDS011;9585;51.018;4.282;2023-07-22T01:38:07;11.02;;;8.00;;
18905;SDS011;9585;51.018;4.282;2023-07-22T01:40:36;8.93;;;7.45;;
18905;SDS011;9585;51.018;4.282;2023-07-22T01:43:04;9.75;;;7.50;;
18905;SDS011;9585;51.018;4.282;2023-07-22T01:45:32;9.88;;;7.65;;
18905;SDS011;9585;51.018;4.282;2023-07-22T01:48:00;9.20;;;7.05;;
18905;SDS011;9585;51.018;4.282;2023-07-22T01:50:28;8.48;;;7.22;;
18905;SDS011;9585;51.018;4.282;2023-07-22T01:52:55;10.18;;;8.07;;
18905;SDS011;9585;51.018;4.282;2023-07-22T01:55:23;12.32;;;7.95;;
18905;SDS011;9585;51.018;4.282;2023-07-22T01:57:52;10.50;;;7.53;;
18905;SDS011;9585;51.018;4.282;2023-07-22T02:00:20;9.93;;;7.57;;
18905;SDS011;9585;51.018;4.282;2023-07-22T02:02:48;10.30;;;7.55;;
18905;SDS011;9585;51.018;4.282;2023-07-22T02:05:16;9.30;;;7.65;;
18905;SDS011;9585;51.018;4.282;2023-07-22T02:07:44;9.45;;;7.72;;
18905;SDS011;9585;51.018;4.282;2023-07-22T02:10:12;9.45;;;7.47;;
18905;SDS011;9585;51.018;4.282;2023-07-22T02:12:40;9.10;;;7.38;;
18905;SDS011;9585;51.018;4.282;2023-07-22T02:15:09;9.65;;;7.82;;
18905;SDS011;9585;51.018;4.282;2023-07-22T02:17:37;11.18;;;8.30;;
18905;SDS011;9585;51.018;4.282;2023-07-22T02:20:05;10.73;;;7.65;;
18905;SDS011;9585;51.018;4.282;2023-07-22T02:22:34;10.18;;;8.07;;
18905;SDS011;9585;51.018;4.282;2023-07-22T02:25:02;14.02;;;8.02;;
18905;SDS011;9585;51.018;4.282;2023-07-22T02:27:30;10.13;;;7.82;;
18905;SDS011;9585;51.018;4.282;2023-07-22T02:29:58;11.20;;;8.10;;
18905;SDS011;9585;51.018;4.282;2023-07-22T02:32:27;9.43;;;7.22;;
18905;SDS011;9585;51.018;4.282;2023-07-22T02:34:55;11.77;;;7.60;;
18905;SDS011;9585;51.018;4.282;2023-07-22T02:37:23;12.43;;;8.60;;
18905;SDS011;9585;51.018;4.282;2023-07-22T02:39:51;12.50;;;8.10;;
18905;SDS011;9585;51.018;4.282;2023-07-22T02:42:21;9.85;;;7.68;;
18905;SDS011;9585;51.018;4.282;2023-07-22T02:44:49;12.18;;;8.10;;
18905;SDS011;9585;51.018;4.282;2023-07-22T02:47:17;12.88;;;8.20;;
18905;SDS011;9585;51.018;4.282;2023-07-22T02:49:49;12.63;;;8.45;;
18905;SDS011;9585;51.018;4.282;2023-07-22T02:52:17;10.63;;;8.10;;
18905;SDS011;9585;51.018;4.282;2023-07-22T02:54:53;13.65;;;9.00;;
18905;SDS011;9585;51.018;4.282;2023-07-22T02:57:32;11.40;;;8.10;;
18905;SDS011;9585;51.018;4.282;2023-07-22T03:00:00;12.73;;;8.43;;
18905;SDS011;9585;51.018;4.282;2023-07-22T03:02:32;11.52;;;7.90;;
18905;SDS011;9585;51.018;4.282;2023-07-22T03:05:02;11.57;;;8.05;;
18905;SDS011;9585;51.018;4.282;2023-07-22T03:07:33;12.38;;;8.80;;
18905;SDS011;9585;51.018;4.282;2023-07-22T03:10:01;10.57;;;8.45;;
18905;SDS011;9585;51.018;4.282;2023-07-22T03:12:29;13.27;;;8.48;;
18905;SDS011;9585;51.018;4.282;2023-07-22T03:14:56;12.02;;;8.57;;
18905;SDS011;9585;51.018;4.282;2023-07-22T03:17:25;13.50;;;8.95;;
18905;SDS011;9585;51.018;4.282;2023-07-22T03:19:53;14.43;;;8.15;;
18905;SDS011;9585;51.018;4.282;2023-07-22T03:22:22;10.98;;;8.77;;
18905;SDS011;9585;51.018;4.282;2023-07-22T03:24:50;10.30;;;8.05;;
18905;SDS011;9585;51.018;4.282;2023-07-22T03:27:17;11.15;;;8.05;;
18905;SDS011;9585;51.018;4.282;2023-07-22T03:29:45;11.02;;;8.25;;
18905;SDS011;9585;51.018;4.282;2023-07-22T03:32:13;12.80;;;8.95;;
18905;SDS011;9585;51.018;4.282;2023-07-22T03:34:41;15.32;;;9.23;;
18905;SDS011;9585;51.018;4.282;2023-07-22T03:37:09;10.38;;;8.75;;
18905;SDS011;9585;51.018;4.282;2023-07-22T03:39:39;11.27;;;8.02;;
18905;SDS011;9585;51.018;4.282;2023-07-22T03:42:08;12.75;;;9.48;;
18905;SDS011;9585;51.018;4.282;2023-07-22T03:44:39;11.38;;;8.35;;
18905;SDS011;9585;51.018;4.282;2023-07-22T03:47:07;14.15;;;9.45;;
18905;SDS011;9585;51.018;4.282;2023-07-22T03:49:35;12.52;;;8.77;;
18905;SDS011;9585;51.018;4.282;2023-07-22T03:52:03;14.35;;;9.27;;
18905;SDS011;9585;51.018;4.282;2023-07-22T03:54:31;15.10;;;9.40;;
18905;SDS011;9585;51.018;4.282;2023-07-22T03:57:03;14.82;;;9.27;;
18905;SDS011;9585;51.018;4.282;2023-07-22T03:59:31;14.40;;;9.30;;
18905;SDS011;9585;51.018;4.282;2023-07-22T04:01:59;14.82;;;8.98;;
18905;SDS011;9585;51.018;4.282;2023-07-22T04:04:34;13.00;;;8.68;;
18905;SDS011;9585;51.018;4.282;2023-07-22T04:07:02;13.23;;;8.93;;
18905;SDS011;9585;51.018;4.282;2023-07-22T04:09:33;12.68;;;9.00;;
18905;SDS011;9585;51.018;4.282;2023-07-22T04:12:03;12.55;;;9.35;;
18905;SDS011;9585;51.018;4.282;2023-07-22T04:14:31;16.77;;;9.13;;
18905;SDS011;9585;51.018;4.282;2023-07-22T04:16:58;14.52;;;9.60;;
18905;SDS011;9585;51.018;4.282;2023-07-22T04:19:26;11.65;;;9.00;;
18905;SDS011;9585;51.018;4.282;2023-07-22T04:21:54;13.52;;;9.32;;
18905;SDS011;9585;51.018;4.282;2023-07-22T04:24:21;14.82;;;9.77;;
18905;SDS011;9585;51.018;4.282;2023-07-22T04:26:52;15.00;;;9.60;;
18905;SDS011;9585;51.018;4.282;2023-07-22T04:29:22;12.73;;;9.45;;
18905;SDS011;9585;51.018;4.282;2023-07-22T04:31:49;11.88;;;9.05;;
18905;SDS011;9585;51.018;4.282;2023-07-22T04:34:17;12.77;;;9.43;;
18905;SDS011;9585;51.018;4.282;2023-07-22T04:36:45;12.45;;;8.95;;
18905;SDS011;9585;51.018;4.282;2023-07-22T04:39:12;15.77;;;9.32;;
18905;SDS011;9585;51.018;4.282;2023-07-22T04:41:41;13.48;;;8.85;;
18905;SDS011;9585;51.018;4.282;2023-07-22T04:44:09;14.50;;;9.35;;
18905;SDS011;9585;51.018;4.282;2023-07-22T04:46:38;13.63;;;8.93;;
18905;SDS011;9585;51.018;4.282;2023-07-22T04:49:06;18.02;;;9.40;;
18905;SDS011;9585;51.018;4.282;2023-07-22T04:51:34;13.60;;;9.48;;
18905;SDS011;9585;51.018;4.282;2023-07-22T04:54:02;11.90;;;8.68;;
18905;SDS011;9585;51.018;4.282;2023-07-22T04:56:30;12.10;;;8.73;;
18905;SDS011;9585;51.018;4.282;2023-07-22T04:58:57;15.45;;;8.88;;
18905;SDS011;9585;51.018;4.282;2023-07-22T05:01:25;14.48;;;8.70;;
18905;SDS011;9585;51.018;4.282;2023-07-22T05:03:54;13.43;;;8.98;;
18905;SDS011;9585;51.018;4.282;2023-07-22T05:06:23;14.23;;;9.13;;
18905;SDS011;9585;51.018;4.282;2023-07-22T05:08:51;12.23;;;9.18;;
18905;SDS011;9585;51.018;4.282;2023-07-22T05:11:18;16.75;;;9.73;;
18905;SDS011;9585;51.018;4.282;2023-07-22T05:13:48;14.35;;;8.95;;
18905;SDS011;9585;51.018;4.282;2023-07-22T05:16:16;14.50;;;9.02;;
18905;SDS011;9585;51.018;4.282;2023-07-22T05:18:44;15.00;;;9.98;;
18905;SDS011;9585;51.018;4.282;2023-07-22T05:21:13;18.17;;;9.70;;
18905;SDS011;9585;51.018;4.282;2023-07-22T05:23:41;12.50;;;9.68;;
18905;SDS011;9585;51.018;4.282;2023-07-22T05:26:09;14.30;;;10.02;;
18905;SDS011;9585;51.018;4.282;2023-07-22T05:28:37;14.90;;;9.02;;
18905;SDS011;9585;51.018;4.282;2023-07-22T05:31:04;14.05;;;9.40;;
18905;SDS011;9585;51.018;4.282;2023-07-22T05:33:33;15.30;;;9.75;;
18905;SDS011;9585;51.018;4.282;2023-07-22T05:36:01;14.85;;;8.75;;
18905;SDS011;9585;51.018;4.282;2023-07-22T05:38:31;13.27;;;8.77;;
18905;SDS011;9585;51.018;4.282;2023-07-22T05:40:59;13.20;;;8.50;;
18905;SDS011;9585;51.018;4.282;2023-07-22T05:43:26;13.85;;;9.02;;
18905;SDS011;9585;51.018;4.282;2023-07-22T05:45:54;15.05;;;8.27;;
18905;SDS011;9585;51.018;4.282;2023-07-22T05:48:22;10.82;;;7.93;;
18905;SDS011;9585;51.018;4.282;2023-07-22T05:50:50;12.75;;;8.10;;
18905;SDS011;9585;51.018;4.282;2023-07-22T05:53:19;14.57;;;7.82;;
18905;SDS011;9585;51.018;4.282;2023-07-22T05:55:48;12.23;;;7.78;;
18905;SDS011;9585;51.018;4.282;2023-07-22T05:58:16;11.45;;;7.78;;
18905;SDS011;9585;51.018;4.282;2023-07-22T06:00:44;11.75;;;7.53;;
18905;SDS011;9585;51.018;4.282;2023-07-22T06:03:13;10.05;;;7.03;;
18905;SDS011;9585;51.018;4.282;2023-07-22T06:05:41;9.38;;;6.88;;
18905;SDS011;9585;51.018;4.282;2023-07-22T06:08:08;13.00;;;7.28;;
18905;SDS011;9585;51.018;4.282;2023-07-22T06:10:36;12.93;;;7.20;;
18905;SDS011;9585;51.018;4.282;2023-07-22T06:13:06;9.88;;;6.40;;
18905;SDS011;9585;51.018;4.282;2023-07-22T06:15:33;9.38;;;6.55;;
18905;SDS011;9585;51.018;4.282;2023-07-22T06:18:01;9.32;;;6.90;;
18905;SDS011;9585;51.018;4.282;2023-07-22T06:20:33;12.15;;;7.18;;
18905;SDS011;9585;51.018;4.282;2023-07-22T06:23:04;10.35;;;6.13;;
18905;SDS011;9585;51.018;4.282;2023-07-22T06:25:32;9.13;;;5.93;;
18905;SDS011;9585;51.018;4.282;2023-07-22T06:28:00;8.35;;;5.68;;
18905;SDS011;9585;51.018;4.282;2023-07-22T06:30:30;8.35;;;6.32;;
18905;SDS011;9585;51.018;4.282;2023-07-22T06:33:02;11.43;;;6.30;;
18905;SDS011;9585;51.018;4.282;2023-07-22T06:35:30;10.15;;;6.00;;
18905;SDS011;9585;51.018;4.282;2023-07-22T06:37:58;12.20;;;6.93;;
18905;SDS011;9585;51.018;4.282;2023-07-22T06:40:26;9.90;;;6.25;;
18905;SDS011;9585;51.018;4.282;2023-07-22T06:42:54;10.35;;;6.20;;
18905;SDS011;9585;51.018;4.282;2023-07-22T06:45:22;8.02;;;5.00;;
18905;SDS011;9585;51.018;4.282;2023-07-22T06:47:51;8.82;;;5.80;;
18905;SDS011;9585;51.018;4.282;2023-07-22T06:50:19;9.45;;;6.00;;
18905;SDS011;9585;51.018;4.282;2023-07-22T06:52:47;7.25;;;5.70;;
18905;SDS011;9585;51.018;4.282;2023-07-22T06:55:24;8.43;;;5.20;;
18905;SDS011;9585;51.018;4.282;2023-07-22T06:57:52;8.90;;;5.65;;
18905;SDS011;9585;51.018;4.282;2023-07-22T07:00:22;7.60;;;5.43;;
18905;SDS011;9585;51.018;4.282;2023-07-22T07:02:55;8.15;;;5.57;;
18905;SDS011;9585;51.018;4.282;2023-07-22T07:05:22;9.32;;;5.47;;
18905;SDS011;9585;51.018;4.282;2023-07-22T07:07:50;7.63;;;4.82;;
18905;SDS011;9585;51.018;4.282;2023-07-22T07:10:18;9.48;;;4.63;;
18905;SDS011;9585;51.018;4.282;2023-07-22T07:12:46;10.30;;;5.00;;
18905;SDS011;9585;51.018;4.282;2023-07-22T07:15:14;7.82;;;4.53;;
18905;SDS011;9585;51.018;4.282;2023-07-22T07:17:49;6.63;;;4.60;;
18905;SDS011;9585;51.018;4.282;2023-07-22T07:20:19;9.52;;;5.10;;
18905;SDS011;9585;51.018;4.282;2023-07-22T07:22:47;7.72;;;5.10;;
18905;SDS011;9585;51.018;4.282;2023-07-22T07:25:15;10.38;;;5.65;;
18905;SDS011;9585;51.018;4.282;2023-07-22T07:27:45;8.70;;;4.85;;
18905;SDS011;9585;51.018;4.282;2023-07-22T07:30:13;9.77;;;5.38;;
18905;SDS011;9585;51.018;4.282;2023-07-22T07:32:41;11.77;;;4.55;;
18905;SDS011;9585;51.018;4.282;2023-07-22T07:35:10;8.63;;;4.80;;
18905;SDS011;9585;51.018;4.282;2023-07-22T07:37:40;7.05;;;4.65;;
18905;SDS011;9585;51.018;4.282;2023-07-22T07:40:08;8.40;;;5.13;;
18905;SDS011;9585;51.018;4.282;2023-07-22T07:42:38;7.57;;;4.85;;
18905;SDS011;9585;51.018;4.282;2023-07-22T07:45:06;8.68;;;5.40;;
18905;SDS011;9585;51.018;4.282;2023-07-22T07:47:35;7.55;;;4.75;;
18905;SDS011;9585;51.018;4.282;2023-07-22T07:50:03;10.02;;;5.53;;
18905;SDS011;9585;51.018;4.282;2023-07-22T07:52:40;10.40;;;5.50;;
18905;SDS011;9585;51.018;4.282;2023-07-22T07:55:17;8.50;;;5.43;;
18905;SDS011;9585;51.018;4.282;2023-07-22T07:57:57;9.82;;;4.97;;
18905;SDS011;9585;51.018;4.282;2023-07-22T08:00:25;9.07;;;4.88;;
18905;SDS011;9585;51.018;4.282;2023-07-22T08:02:56;8.68;;;5.22;;
18905;SDS011;9585;51.018;4.282;2023-07-22T08:05:25;9.35;;;4.90;;
18905;SDS011;9585;51.018;4.282;2023-07-22T08:07:55;8.82;;;4.88;;
18905;SDS011;9585;51.018;4.282;2023-07-22T08:10:23;6.88;;;4.45;;
18905;SDS011;9585;51.018;4.282;2023-07-22T08:12:51;5.50;;;3.78;;
18905;SDS011;9585;51.018;4.282;2023-07-22T08:15:18;7.32;;;4.13;;
18905;SDS011;9585;51.018;4.282;2023-07-22T08:17:46;7.63;;;4.70;;
18905;SDS011;9585;51.018;4.282;2023-07-22T08:20:19;5.20;;;4.03;;
18905;SDS011;9585;51.018;4.282;2023-07-22T08:22:49;6.18;;;4.15;;
18905;SDS011;9585;51.018;4.282;2023-07-22T08:25:19;6.55;;;4.07;;
18905;SDS011;9585;51.018;4.282;2023-07-22T08:27:48;7.10;;;4.38;;
18905;SDS011;9585;51.018;4.282;2023-07-22T08:30:16;5.72;;;4.25;;
18905;SDS011;9585;51.018;4.282;2023-07-22T08:32:44;5.55;;;3.70;;
18905;SDS011;9585;51.018;4.282;2023-07-22T08:35:12;6.63;;;3.70;;
18905;SDS011;9585;51.018;4.282;2023-07-22T08:37:42;6.75;;;3.40;;
18905;SDS011;9585;51.018;4.282;2023-07-22T08:40:12;4.65;;;2.90;;
18905;SDS011;9585;51.018;4.282;2023-07-22T08:42:41;5.85;;;3.58;;
18905;SDS011;9585;51.018;4.282;2023-07-22T08:45:11;5.22;;;3.45;;
18905;SDS011;9585;51.018;4.282;2023-07-22T08:47:43;4.97;;;3.30;;
18905;SDS011;9585;51.018;4.282;2023-07-22T08:50:14;6.97;;;3.35;;
18905;SDS011;9585;51.018;4.282;2023-07-22T08:52:46;4.60;;;3.00;;
18905;SDS011;9585;51.018;4.282;2023-07-22T08:55:14;3.53;;;2.78;;
18905;SDS011;9585;51.018;4.282;2023-07-22T08:57:45;4.55;;;2.63;;
18905;SDS011;9585;51.018;4.282;2023-07-22T09:00:15;4.75;;;2.60;;
18905;SDS011;9585;51.018;4.282;2023-07-22T09:02:44;4.93;;;2.40;;
18905;SDS011;9585;51.018;4.282;2023-07-22T09:05:13;3.83;;;2.40;;
18905;SDS011;9585;51.018;4.282;2023-07-22T09:07:43;4.70;;;2.47;;
18905;SDS011;9585;51.018;4.282;2023-07-22T09:10:14;3.75;;;2.20;;
18905;SDS011;9585;51.018;4.282;2023-07-22T09:12:45;5.53;;;2.50;;
18905;SDS011;9585;51.018;4.282;2023-07-22T09:15:17;5.53;;;2.50;;
18905;SDS011;9585;51.018;4.282;2023-07-22T09:17:45;3.78;;;2.22;;
18905;SDS011;9585;51.018;4.282;2023-07-22T09:20:14;4.75;;;2.20;;
18905;SDS011;9585;51.018;4.282;2023-07-22T09:22:43;4.82;;;2.20;;
18905;SDS011;9585;51.018;4.282;2023-07-22T09:25:12;3.35;;;1.88;;
18905;SDS011;9585;51.018;4.282;2023-07-22T09:27:41;3.80;;;1.67;;
18905;SDS011;9585;51.018;4.282;2023-07-22T09:30:24;2.85;;;1.83;;
18905;SDS011;9585;51.018;4.282;2023-07-22T09:32:53;3.53;;;1.88;;
18905;SDS011;9585;51.018;4.282;2023-07-22T09:35:28;3.00;;;1.67;;
18905;SDS011;9585;51.018;4.282;2023-07-22T09:38:01;3.50;;;2.13;;
18905;SDS011;9585;51.018;4.282;2023-07-22T09:40:32;3.38;;;1.75;;
18905;SDS011;9585;51.018;4.282;2023-07-22T09:43:03;3.50;;;1.90;;
18905;SDS011;9585;51.018;4.282;2023-07-22T09:45:33;2.92;;;2.05;;
18905;SDS011;9585;51.018;4.282;2023-07-22T09:48:08;2.95;;;1.73;;
18905;SDS011;9585;51.018;4.282;2023-07-22T09:50:37;4.00;;;2.00;;
18905;SDS011;9585;51.018;4.282;2023-07-22T09:53:08;3.13;;;1.77;;
18905;SDS011;9585;51.018;4.282;2023-07-22T09:55:43;3.15;;;1.90;;
18905;SDS011;9585;51.018;4.282;2023-07-22T09:58:14;2.72;;;1.67;;
18905;SDS011;9585;51.018;4.282;2023-07-22T10:00:45;3.63;;;2.10;;
18905;SDS011;9585;51.018;4.282;2023-07-22T10:03:17;3.75;;;1.70;;
18905;SDS011;9585;51.018;4.282;2023-07-22T10:05:50;1.50;;;1.30;;
18905;SDS011;9585;51.018;4.282;2023-07-22T10:08:21;3.03;;;1.50;;
18905;SDS011;9585;51.018;4.282;2023-07-22T10:10:51;3.00;;;1.83;;
18905;SDS011;9585;51.018;4.282;2023-07-22T10:13:22;3.40;;;1.65;;
18905;SDS011;9585;51.018;4.282;2023-07-22T10:15:53;2.45;;;1.45;;
18905;SDS011;9585;51.018;4.282;2023-07-22T10:18:21;2.45;;;1.52;;
18905;SDS011;9585;51.018;4.282;2023-07-22T10:20:51;2.40;;;1.30;;
18905;SDS011;9585;51.018;4.282;2023-07-22T10:23:20;2.05;;;1.45;;
18905;SDS011;9585;51.018;4.282;2023-07-22T10:25:51;2.50;;;1.42;;
18905;SDS011;9585;51.018;4.282;2023-07-22T10:28:21;3.35;;;1.63;;
18905;SDS011;9585;51.018;4.282;2023-07-22T10:30:49;2.85;;;1.42;;
18905;SDS011;9585;51.018;4.282;2023-07-22T10:33:20;2.80;;;1.23;;
18905;SDS011;9585;51.018;4.282;2023-07-22T10:38:32;1.60;;;1.20;;
18905;SDS011;9585;51.018;4.282;2023-07-22T10:41:04;1.85;;;1.58;;
18905;SDS011;9585;51.018;4.282;2023-07-22T10:43:42;2.15;;;1.40;;
18905;SDS011;9585;51.018;4.282;2023-07-22T10:46:31;3.63;;;1.48;;
18905;SDS011;9585;51.018;4.282;2023-07-22T10:49:14;2.03;;;1.30;;
18905;SDS011;9585;51.018;4.282;2023-07-22T10:51:47;1.52;;;1.25;;
18905;SDS011;9585;51.018;4.282;2023-07-22T10:54:31;2.03;;;1.60;;
18905;SDS011;9585;51.018;4.282;2023-07-22T10:57:22;3.30;;;1.42;;
18905;SDS011;9585;51.018;4.282;2023-07-22T10:59:51;1.50;;;1.30;;
18905;SDS011;9585;51.018;4.282;2023-07-22T11:02:24;2.03;;;1.20;;
18905;SDS011;9585;51.018;4.282;2023-07-22T11:04:57;3.42;;;1.40;;
18905;SDS011;9585;51.018;4.282;2023-07-22T11:07:32;3.25;;;1.30;;
18905;SDS011;9585;51.018;4.282;2023-07-22T11:10:11;1.85;;;1.38;;
18905;SDS011;9585;51.018;4.282;2023-07-22T11:12:43;1.85;;;1.38;;
18905;SDS011;9585;51.018;4.282;2023-07-22T11:15:14;3.00;;;1.38;;
18905;SDS011;9585;51.018;4.282;2023-07-22T11:17:43;3.05;;;1.67;;
18905;SDS011;9585;51.018;4.282;2023-07-22T11:20:16;1.70;;;1.23;;
18905;SDS011;9585;51.018;4.282;2023-07-22T11:22:45;2.88;;;1.42;;
18905;SDS011;9585;51.018;4.282;2023-07-22T11:25:19;1.45;;;1.27;;
18905;SDS011;9585;51.018;4.282;2023-07-22T11:27:51;2.25;;;1.50;;
18905;SDS011;9585;51.018;4.282;2023-07-22T11:30:22;2.08;;;1.38;;
18905;SDS011;9585;51.018;4.282;2023-07-22T11:32:52;3.00;;;1.52;;
18905;SDS011;9585;51.018;4.282;2023-07-22T11:35:22;2.22;;;1.48;;
18905;SDS011;9585;51.018;4.282;2023-07-22T11:37:53;2.17;;;1.35;;
18905;SDS011;9585;51.018;4.282;2023-07-22T11:40:32;2.90;;;1.55;;
18905;SDS011;9585;51.018;4.282;2023-07-22T11:43:00;3.08;;;1.50;;
18905;SDS011;9585;51.018;4.282;2023-07-22T11:45:30;2.75;;;1.50;;
18905;SDS011;9585;51.018;4.282;2023-07-22T11:48:00;1.98;;;1.67;;
18905;SDS011;9585;51.018;4.282;2023-07-22T11:50:33;2.25;;;1.17;;
18905;SDS011;9585;51.018;4.282;2023-07-22T11:53:03;1.90;;;1.50;;
18905;SDS011;9585;51.018;4.282;2023-07-22T11:55:33;1.40;;;1.30;;
18905;SDS011;9585;51.018;4.282;2023-07-22T11:58:03;2.50;;;1.40;;
18905;SDS011;9585;51.018;4.282;2023-07-22T12:00:35;1.52;;;1.40;;
18905;SDS011;9585;51.018;4.282;2023-07-22T12:03:07;3.15;;;1.55;;
18905;SDS011;9585;51.018;4.282;2023-07-22T12:05:39;2.03;;;1.50;;
18905;SDS011;9585;51.018;4.282;2023-07-22T12:08:14;1.95;;;1.30;;
18905;SDS011;9585;51.018;4.282;2023-07-22T12:10:42;2.75;;;1.40;;
18905;SDS011;9585;51.018;4.282;2023-07-22T12:13:13;3.35;;;1.52;;
18905;SDS011;9585;51.018;4.282;2023-07-22T12:15:41;2.63;;;1.63;;
18905;SDS011;9585;51.018;4.282;2023-07-22T12:18:12;1.58;;;1.48;;
18905;SDS011;9585;51.018;4.282;2023-07-22T12:20:44;2.03;;;1.33;;
18905;SDS011;9585;51.018;4.282;2023-07-22T12:23:12;3.78;;;1.58;;
18905;SDS011;9585;51.018;4.282;2023-07-22T12:25:41;2.78;;;1.58;;
18905;SDS011;9585;51.018;4.282;2023-07-22T12:28:09;2.90;;;1.55;;
18905;SDS011;9585;51.018;4.282;2023-07-22T12:30:38;4.63;;;1.58;;
18905;SDS011;9585;51.018;4.282;2023-07-22T12:33:07;1.98;;;1.50;;
18905;SDS011;9585;51.018;4.282;2023-07-22T12:35:35;1.95;;;1.65;;
18905;SDS011;9585;51.018;4.282;2023-07-22T12:38:05;2.35;;;1.60;;
18905;SDS011;9585;51.018;4.282;2023-07-22T12:40:36;2.63;;;1.50;;
18905;SDS011;9585;51.018;4.282;2023-07-22T12:43:06;2.03;;;1.52;;
18905;SDS011;9585;51.018;4.282;2023-07-22T12:45:34;2.28;;;1.45;;
18905;SDS011;9585;51.018;4.282;2023-07-22T12:48:02;3.22;;;1.52;;
18905;SDS011;9585;51.018;4.282;2023-07-22T12:50:34;2.55;;;1.50;;
18905;SDS011;9585;51.018;4.282;2023-07-22T12:53:06;2.08;;;1.52;;
18905;SDS011;9585;51.018;4.282;2023-07-22T12:55:38;2.15;;;1.50;;
18905;SDS011;9585;51.018;4.282;2023-07-22T12:58:06;2.50;;;1.40;;
18905;SDS011;9585;51.018;4.282;2023-07-22T13:00:34;2.17;;;1.60;;
18905;SDS011;9585;51.018;4.282;2023-07-22T13:03:06;2.65;;;1.70;;
18905;SDS011;9585;51.018;4.282;2023-07-22T13:05:34;2.22;;;1.60;;
18905;SDS011;9585;51.018;4.282;2023-07-22T13:08:02;2.63;;;1.70;;
18905;SDS011;9585;51.018;4.282;2023-07-22T13:10:32;1.77;;;1.42;;
18905;SDS011;9585;51.018;4.282;2023-07-22T13:13:03;1.90;;;1.70;;
18905;SDS011;9585;51.018;4.282;2023-07-22T13:15:32;3.03;;;1.50;;
18905;SDS011;9585;51.018;4.282;2023-07-22T13:18:03;3.97;;;1.73;;
18905;SDS011;9585;51.018;4.282;2023-07-22T13:20:30;2.47;;;1.50;;
18905;SDS011;9585;51.018;4.282;2023-07-22T13:23:00;3.25;;;1.70;;
18905;SDS011;9585;51.018;4.282;2023-07-22T13:25:28;2.80;;;1.55;;
18905;SDS011;9585;51.018;4.282;2023-07-22T13:27:58;3.00;;;1.40;;
18905;SDS011;9585;51.018;4.282;2023-07-22T13:30:29;3.08;;;1.60;;
18905;SDS011;9585;51.018;4.282;2023-07-22T13:33:02;2.55;;;1.50;;
18905;SDS011;9585;51.018;4.282;2023-07-22T13:35:31;2.42;;;1.30;;
18905;SDS011;9585;51.018;4.282;2023-07-22T13:37:59;2.78;;;1.60;;
18905;SDS011;9585;51.018;4.282;2023-07-22T13:40:29;3.40;;;1.52;;
18905;SDS011;9585;51.018;4.282;2023-07-22T13:42:59;2.67;;;1.58;;
18905;SDS011;9585;51.018;4.282;2023-07-22T13:45:27;5.63;;;1.55;;
18905;SDS011;9585;51.018;4.282;2023-07-22T13:47:55;2.38;;;1.40;;
18905;SDS011;9585;51.018;4.282;2023-07-22T13:50:29;5.47;;;1.50;;
18905;SDS011;9585;51.018;4.282;2023-07-22T13:52:57;3.25;;;1.30;;
18905;SDS011;9585;51.018;4.282;2023-07-22T13:55:26;2.03;;;1.50;;
18905;SDS011;9585;51.018;4.282;2023-07-22T13:57:56;2.15;;;1.35;;
18905;SDS011;9585;51.018;4.282;2023-07-22T14:00:25;2.92;;;1.58;;
18905;SDS011;9585;51.018;4.282;2023-07-22T14:03:00;2.20;;;1.35;;
18905;SDS011;9585;51.018;4.282;2023-07-22T14:05:28;3.25;;;1.33;;
18905;SDS011;9585;51.018;4.282;2023-07-22T14:07:56;2.15;;;1.40;;
18905;SDS011;9585;51.018;4.282;2023-07-22T14:10:26;2.38;;;1.30;;
18905;SDS011;9585;51.018;4.282;2023-07-22T14:12:56;2.65;;;1.33;;
18905;SDS011;9585;51.018;4.282;2023-07-22T14:15:30;2.47;;;1.48;;
18905;SDS011;9585;51.018;4.282;2023-07-22T14:17:59;2.95;;;1.55;;
18905;SDS011;9585;51.018;4.282;2023-07-22T14:20:28;2.88;;;1.58;;
18905;SDS011;9585;51.018;4.282;2023-07-22T14:22:56;4.35;;;1.38;;
18905;SDS011;9585;51.018;4.282;2023-07-22T14:25:32;2.40;;;1.52;;
18905;SDS011;9585;51.018;4.282;2023-07-22T14:28:04;3.78;;;1.60;;
18905;SDS011;9585;51.018;4.282;2023-07-22T14:30:38;2.35;;;1.42;;
18905;SDS011;9585;51.018;4.282;2023-07-22T14:33:06;4.25;;;1.85;;
18905;SDS011;9585;51.018;4.282;2023-07-22T14:35:42;3.20;;;1.45;;
18905;SDS011;9585;51.018;4.282;2023-07-22T14:38:10;5.35;;;1.77;;
18905;SDS011;9585;51.018;4.282;2023-07-22T14:40:38;2.92;;;1.63;;
18905;SDS011;9585;51.018;4.282;2023-07-22T14:43:15;1.95;;;1.33;;
18905;SDS011;9585;51.018;4.282;2023-07-22T14:45:45;2.08;;;1.45;;
18905;SDS011;9585;51.018;4.282;2023-07-22T14:48:13;3.85;;;1.77;;
18905;SDS011;9585;51.018;4.282;2023-07-22T14:50:41;3.75;;;1.77;;
18905;SDS011;9585;51.018;4.282;2023-07-22T14:53:09;2.22;;;1.30;;
18905;SDS011;9585;51.018;4.282;2023-07-22T14:55:37;3.58;;;1.60;;
18905;SDS011;9585;51.018;4.282;2023-07-22T14:58:06;3.47;;;1.70;;
18905;SDS011;9585;51.018;4.282;2023-07-22T15:00:34;2.85;;;1.52;;
18905;SDS011;9585;51.018;4.282;2023-07-22T15:03:04;2.45;;;1.48;;
18905;SDS011;9585;51.018;4.282;2023-07-22T15:05:34;2.55;;;1.40;;
18905;SDS011;9585;51.018;4.282;2023-07-22T15:08:05;2.53;;;1.30;;
18905;SDS011;9585;51.018;4.282;2023-07-22T15:10:33;2.78;;;1.35;;
18905;SDS011;9585;51.018;4.282;2023-07-22T15:13:01;3.10;;;1.50;;
18905;SDS011;9585;51.018;4.282;2023-07-22T15:15:31;2.45;;;1.40;;